Time;durP1;ratioP1;P1;durP2;ratioP2;P2;SDS_P1;SDS_P2;PMS_P1;PMS_P2;Temp;Humidity;BMP_temperature;BMP_pressure;BME280_temperature;BME280_humidity;BME280_pressure;Samples;Min_cycle;Max_cycle;Signal;HPM_P1;HPM_P2
2022/06/21 00:02:13;;;;;;;6.15;2.80;;;10.60;99.90;;;;;;4778946;29;20393;-68
2022/06/21 00:04:39;;;;;;;6.95;2.67;;;10.60;99.90;;;;;;4771495;30;20111;-68
2022/06/21 00:07:06;;;;;;;5.50;3.00;;;10.60;99.90;;;;;;4770586;29;20059;-67
2022/06/21 00:09:31;;;;;;;6.97;2.55;;;10.60;99.90;;;;;;4786672;29;20051;-69
2022/06/21 00:11:57;;;;;;;8.40;2.80;;;10.60;99.90;;;;;;4787637;29;20097;-69
2022/06/21 00:14:23;;;;;;;3.92;2.70;;;10.50;99.90;;;;;;4788114;29;20090;-68
2022/06/21 00:16:48;;;;;;;6.13;2.95;;;10.50;99.90;;;;;;4770810;30;20059;-69
2022/06/21 00:19:19;;;;;;;4.22;2.35;;;10.50;99.90;;;;;;4772195;30;20055;-68
2022/06/21 00:21:45;;;;;;;5.50;2.55;;;10.50;99.90;;;;;;4770351;30;20043;-68
2022/06/21 00:24:13;;;;;;;6.95;2.67;;;10.40;99.90;;;;;;4766660;29;20144;-69
2022/06/21 00:26:39;;;;;;;4.00;2.92;;;10.40;99.90;;;;;;4787274;30;20055;-68
2022/06/21 00:29:05;;;;;;;5.63;2.40;;;10.40;99.90;;;;;;4770857;29;20104;-70
2022/06/21 00:31:33;;;;;;;6.97;2.60;;;10.30;99.90;;;;;;4785626;29;20058;-69
2022/06/21 00:34:16;;;;;;;9.55;3.25;;;10.30;99.90;;;;;;4787607;29;20051;-69
2022/06/21 00:36:42;;;;;;;9.02;2.95;;;10.20;99.90;;;;;;4770692;30;20058;-68
2022/06/21 00:39:17;;;;;;;4.78;2.92;;;10.20;99.90;;;;;;4788785;30;20060;-68
2022/06/21 00:42:01;;;;;;;6.95;3.22;;;10.10;99.90;;;;;;4763133;30;20134;-67
2022/06/21 00:44:41;;;;;;;4.03;2.60;;;10.10;99.90;;;;;;4788983;30;20062;-68
2022/06/21 00:47:17;;;;;;;8.85;3.22;;;10.10;99.90;;;;;;4769568;30;20120;-68
2022/06/21 00:49:56;;;;;;;7.28;2.90;;;10.10;99.90;;;;;;4788650;30;20050;-69
2022/06/21 00:52:31;;;;;;;5.68;2.72;;;10.10;99.90;;;;;;4782311;29;20481;-68
2022/06/21 00:55:03;;;;;;;4.95;2.85;;;10.00;99.90;;;;;;4771343;30;20051;-67
2022/06/21 00:57:52;;;;;;;3.67;2.63;;;9.90;99.90;;;;;;4785258;29;20445;-68
2022/06/21 01:00:26;;;;;;;5.13;2.35;;;9.90;99.90;;;;;;4781764;30;20059;-67
2022/06/21 01:02:53;;;;;;;4.47;2.60;;;9.80;99.90;;;;;;4776344;29;20622;-68
2022/06/21 01:05:19;;;;;;;5.50;2.60;;;9.80;99.90;;;;;;4778413;29;20104;-68
2022/06/21 01:07:46;;;;;;;6.63;2.85;;;9.80;99.90;;;;;;4777832;30;20070;-67
2022/06/21 01:10:16;;;;;;;6.40;3.28;;;9.70;99.90;;;;;;4764499;30;20070;-69
2022/06/21 01:12:45;;;;;;;5.60;3.20;;;9.70;99.90;;;;;;4766220;30;20134;-69
2022/06/21 01:15:19;;;;;;;3.28;2.20;;;9.60;99.90;;;;;;4776891;29;20051;-69
2022/06/21 01:17:47;;;;;;;5.20;2.40;;;9.60;99.90;;;;;;4776056;29;20358;-68
2022/06/21 01:20:19;;;;;;;5.78;2.67;;;9.60;99.90;;;;;;4781301;29;20485;-69
2022/06/21 01:23:04;;;;;;;7.15;3.33;;;9.60;99.90;;;;;;4786262;29;20055;-67
2022/06/21 01:25:55;;;;;;;8.45;3.05;;;9.60;99.90;;;;;;4777973;29;20142;-68
2022/06/21 01:28:21;;;;;;;8.88;3.05;;;9.60;99.90;;;;;;4785233;29;20350;-67
2022/06/21 01:30:51;;;;;;;6.43;2.85;;;9.60;99.90;;;;;;4778646;29;20392;-69
2022/06/21 01:33:26;;;;;;;5.43;3.30;;;9.70;99.90;;;;;;4775749;29;20081;-69
2022/06/21 01:35:55;;;;;;;4.80;3.22;;;9.60;99.90;;;;;;4777672;29;20057;-69
2022/06/21 01:38:29;;;;;;;3.72;2.60;;;9.60;99.90;;;;;;4777394;29;20062;-67
2022/06/21 01:41:04;;;;;;;3.70;2.70;;;9.60;99.90;;;;;;4777651;29;20137;-68
2022/06/21 01:43:32;;;;;;;11.07;3.42;;;9.50;99.90;;;;;;4775988;29;20047;-69
2022/06/21 01:46:03;;;;;;;5.68;2.90;;;9.50;99.90;;;;;;4776569;29;20094;-69
2022/06/21 01:48:42;;;;;;;2.88;2.28;;;9.50;99.90;;;;;;4777310;29;20104;-69
2022/06/21 01:51:13;;;;;;;3.30;2.35;;;9.40;99.90;;;;;;4777213;29;20225;-66
2022/06/21 01:53:39;;;;;;;3.70;2.38;;;9.40;99.90;;;;;;4784340;29;20051;-67
2022/06/21 01:56:13;;;;;;;4.35;3.00;;;9.40;99.90;;;;;;4763704;30;20090;-69
2022/06/21 01:58:43;;;;;;;6.95;3.35;;;9.30;99.90;;;;;;4778131;29;20078;-69
2022/06/21 02:01:26;;;;;;;3.65;2.58;;;9.30;99.90;;;;;;4770288;30;20524;-68
2022/06/21 02:03:55;;;;;;;5.47;3.00;;;9.20;99.90;;;;;;4770853;30;20059;-68
2022/06/21 02:06:24;;;;;;;7.63;2.83;;;9.20;99.90;;;;;;4785986;29;20051;-69
2022/06/21 02:09:01;;;;;;;6.22;3.22;;;9.10;99.90;;;;;;4770917;30;20051;-68
2022/06/21 02:11:44;;;;;;;4.07;3.00;;;9.10;99.90;;;;;;4770037;30;20066;-69
2022/06/21 02:14:30;;;;;;;3.92;2.42;;;9.00;99.90;;;;;;4767551;30;20091;-69
2022/06/21 02:17:06;;;;;;;4.57;2.88;;;9.00;99.90;;;;;;4767152;30;20122;-69
2022/06/21 02:19:38;;;;;;;3.90;3.10;;;9.00;99.90;;;;;;4763932;30;20066;-68
2022/06/21 02:22:05;;;;;;;4.43;2.58;;;9.00;99.90;;;;;;4766443;30;20070;-69
2022/06/21 02:24:31;;;;;;;3.38;2.92;;;8.90;99.90;;;;;;4769574;30;20052;-69
2022/06/21 02:26:59;;;;;;;4.25;3.10;;;8.90;99.90;;;;;;4767000;30;20058;-68
2022/06/21 02:29:25;;;;;;;7.50;3.50;;;8.90;99.90;;;;;;4765744;30;20374;-67
2022/06/21 02:31:51;;;;;;;3.60;2.95;;;8.80;99.90;;;;;;4767205;30;20109;-68
2022/06/21 02:34:30;;;;;;;4.07;2.60;;;8.90;99.90;;;;;;4767056;30;20067;-68
2022/06/21 02:36:59;;;;;;;3.50;2.92;;;8.80;99.90;;;;;;4769022;30;20130;-69
2022/06/21 02:39:28;;;;;;;3.28;2.97;;;8.80;99.90;;;;;;4768659;30;20059;-68
2022/06/21 02:42:31;;;;;;;3.30;3.00;;;8.80;99.90;;;;;;4770501;30;20055;-68
2022/06/21 02:45:01;;;;;;;3.75;2.95;;;8.80;99.90;;;;;;4703737;30;20061;-69
2022/06/21 02:47:35;;;;;;;4.28;3.17;;;8.70;99.90;;;;;;4757533;30;20373;-68
2022/06/21 02:50:28;;;;;;;4.15;3.00;;;8.70;99.90;;;;;;4771895;30;20398;-68
2022/06/21 02:52:56;;;;;;;4.63;2.40;;;8.70;99.90;;;;;;4766471;30;20052;-68
2022/06/21 02:55:52;;;;;;;2.70;2.50;;;8.70;99.90;;;;;;4756774;30;20062;-70
2022/06/21 02:58:24;;;;;;;3.75;2.53;;;8.70;99.90;;;;;;4769761;30;20079;-71
2022/06/21 03:00:51;;;;;;;3.22;2.85;;;8.60;99.90;;;;;;4772727;30;20411;-70
2022/06/21 03:03:23;;;;;;;2.95;2.30;;;8.60;99.90;;;;;;4768682;30;20085;-70
2022/06/21 03:05:52;;;;;;;2.83;2.60;;;8.50;99.90;;;;;;4770467;30;20100;-71
2022/06/21 03:11:09;;;;;;;3.53;2.77;;;8.50;99.90;;;;;;4770147;30;20047;-70
2022/06/21 03:13:35;;;;;;;4.10;3.05;;;8.40;99.90;;;;;;4770789;30;20436;-69
2022/06/21 03:16:06;;;;;;;3.28;2.92;;;8.30;99.90;;;;;;4768860;30;20138;-71
2022/06/21 03:18:44;;;;;;;2.83;2.50;;;8.40;99.90;;;;;;4770344;30;20508;-69
2022/06/21 03:21:26;;;;;;;3.53;2.90;;;8.40;99.90;;;;;;4771107;30;20488;-69
2022/06/21 03:23:52;;;;;;;2.55;2.35;;;8.40;99.90;;;;;;4771317;30;20447;-69
2022/06/21 03:26:18;;;;;;;2.30;2.00;;;8.40;99.90;;;;;;4772599;30;20080;-69
2022/06/21 03:28:45;;;;;;;2.85;2.55;;;8.40;99.90;;;;;;4768511;30;20051;-69
2022/06/21 03:31:33;;;;;;;2.15;2.03;;;8.40;99.90;;;;;;4771251;30;20067;-69
2022/06/21 03:34:50;;;;;;;2.63;2.42;;;8.40;99.90;;;;;;4771206;30;20075;-70
2022/06/21 03:37:17;;;;;;;2.85;2.30;;;8.40;99.90;;;;;;4768484;30;20051;-69
2022/06/21 03:42:32;;;;;;;3.58;2.50;;;8.40;99.90;;;;;;4764742;30;20044;-69
2022/06/21 03:45:05;;;;;;;3.13;2.72;;;8.30;99.90;;;;;;4771970;30;20070;-70
2022/06/21 03:47:37;;;;;;;3.08;2.50;;;8.40;99.90;;;;;;4768066;30;20108;-70
2022/06/21 03:50:29;;;;;;;2.70;2.20;;;8.40;99.90;;;;;;4769033;30;20067;-69
2022/06/21 03:53:15;;;;;;;3.25;2.65;;;8.40;99.90;;;;;;4771068;30;20136;-69
2022/06/21 03:55:58;;;;;;;2.97;2.50;;;8.40;99.90;;;;;;4768904;30;20083;-68
2022/06/21 03:58:43;;;;;;;2.30;2.15;;;8.40;99.90;;;;;;4769738;30;20581;-68
2022/06/21 04:01:35;;;;;;;2.75;2.53;;;8.50;99.90;;;;;;4769782;30;20121;-67
2022/06/21 04:04:25;;;;;;;2.70;2.10;;;8.50;99.90;;;;;;4770690;30;20072;-69
2022/06/21 04:07:12;;;;;;;2.75;2.28;;;8.50;99.90;;;;;;4769271;30;20052;-67
2022/06/21 04:09:59;;;;;;;2.13;1.98;;;8.50;99.90;;;;;;4765864;30;20142;-68
2022/06/21 04:12:39;;;;;;;2.25;2.05;;;8.60;99.90;;;;;;4771448;30;20138;-68
2022/06/21 04:15:22;;;;;;;2.38;2.00;;;8.70;99.90;;;;;;4788518;29;20066;-70
2022/06/21 04:17:55;;;;;;;1.92;1.83;;;8.70;99.90;;;;;;4788640;30;20126;-67
2022/06/21 04:20:42;;;;;;;;;;;8.80;99.90;;;;;;4789159;29;20054;-67
2022/06/21 04:23:33;;;;;;;4.43;2.28;;;8.80;99.90;;;;;;4783604;29;19951;-68
2022/06/21 04:26:08;;;;;;;2.65;2.30;;;8.80;99.90;;;;;;4785594;29;20055;-68
2022/06/21 04:28:58;;;;;;;2.03;1.92;;;8.90;99.90;;;;;;4771361;30;20054;-69
2022/06/21 04:31:34;;;;;;;2.10;2.00;;;8.90;99.90;;;;;;4772925;30;20047;-67
2022/06/21 04:34:08;;;;;;;2.00;1.90;;;9.00;99.90;;;;;;4771775;29;20086;-67
2022/06/21 04:36:44;;;;;;;2.22;2.03;;;9.00;99.90;;;;;;4770579;30;20059;-67
2022/06/21 04:39:22;;;;;;;2.67;2.30;;;9.20;99.90;;;;;;4787263;29;20469;-69
2022/06/21 04:41:50;;;;;;;2.35;2.15;;;9.20;99.90;;;;;;4771427;30;20135;-69
2022/06/21 04:44:40;;;;;;;4.85;2.55;;;9.30;99.90;;;;;;4769907;30;20059;-69
2022/06/21 04:47:22;;;;;;;2.63;2.10;;;9.50;99.90;;;;;;4771356;30;20134;-69
2022/06/21 04:50:04;;;;;;;3.03;2.70;;;9.60;99.90;;;;;;4781876;29;20055;-69
2022/06/21 04:52:33;;;;;;;2.92;2.72;;;9.70;99.90;;;;;;4772607;30;20126;-69
2022/06/21 04:54:58;;;;;;;4.38;2.65;;;9.70;99.90;;;;;;4769824;30;20119;-68
2022/06/21 04:57:28;;;;;;;3.70;3.40;;;9.90;99.90;;;;;;4787563;30;20462;-68
2022/06/21 05:00:02;;;;;;;4.88;2.65;;;10.00;99.90;;;;;;4786172;29;20063;-68
2022/06/21 05:02:32;;;;;;;4.07;3.63;;;10.10;99.90;;;;;;4782217;29;20578;-68
2022/06/21 05:05:34;;;;;;;3.97;3.20;;;10.30;99.90;;;;;;4786978;29;20077;-68
2022/06/21 05:08:12;;;;;;;3.92;3.53;;;10.40;99.90;;;;;;4765862;29;20392;-68
2022/06/21 05:10:46;;;;;;;4.55;3.40;;;10.40;99.90;;;;;;4754219;30;20127;-68
2022/06/21 05:13:45;;;;;;;4.63;3.60;;;10.60;99.90;;;;;;4784968;29;20051;-69
2022/06/21 05:16:22;;;;;;;5.00;3.80;;;10.70;99.90;;;;;;4772670;30;20064;-68
2022/06/21 05:23:11;;;;;;;4.20;3.42;;;11.00;99.90;;;;;;4770270;30;20047;-68
2022/06/21 05:26:04;;;;;;;7.07;3.80;;;11.10;99.90;;;;;;4754322;30;20055;-69
2022/06/21 05:28:37;;;;;;;5.38;3.72;;;11.30;99.90;;;;;;4754217;30;20104;-70
2022/06/21 05:31:10;;;;;;;6.25;4.00;;;11.50;99.90;;;;;;4753886;30;20378;-68
2022/06/21 05:33:46;;;;;;;5.97;4.03;;;11.70;99.90;;;;;;4776666;29;20055;-67
2022/06/21 05:36:23;;;;;;;5.90;3.90;;;12.10;99.90;;;;;;4787217;29;20059;-70
2022/06/21 05:39:25;;;;;;;4.35;3.70;;;12.50;99.90;;;;;;4773587;29;20052;-70
2022/06/21 05:41:54;;;;;;;4.87;4.03;;;13.10;99.90;;;;;;4775390;29;20378;-68
2022/06/21 05:44:34;;;;;;;6.43;3.92;;;13.70;99.90;;;;;;4781665;29;20245;-69
2022/06/21 05:47:15;;;;;;;6.25;3.92;;;13.90;99.90;;;;;;4781323;29;20055;-70
2022/06/21 05:49:42;;;;;;;4.00;3.47;;;14.10;99.90;;;;;;4743575;30;20359;-69
2022/06/21 05:52:24;;;;;;;3.85;3.47;;;14.50;99.90;;;;;;4782193;29;20062;-68
2022/06/21 05:59:23;;;;;;;3.92;3.20;;;16.00;99.90;;;;;;4786675;29;20536;-69
2022/06/21 06:03:05;;;;;;;4.40;3.40;;;17.60;99.90;;;;;;4767735;30;20150;-69
2022/06/21 06:06:21;;;;;;;7.43;3.17;;;18.80;99.90;;;;;;4786096;29;20051;-68
2022/06/21 06:08:52;;;;;;;6.60;3.30;;;19.60;99.90;;;;;;4787510;29;20481;-69
2022/06/21 06:11:26;;;;;;;4.37;3.10;;;20.50;99.90;;;;;;4770937;30;20116;-66
2022/06/21 06:13:54;;;;;;;4.55;2.80;;;21.10;99.90;;;;;;4767457;30;20047;-67
2022/06/21 06:16:34;;;;;;;6.32;3.22;;;21.50;99.90;;;;;;4771067;30;20056;-68
2022/06/21 06:19:18;;;;;;;5.65;3.10;;;22.00;99.90;;;;;;4770443;30;20134;-66
2022/06/21 06:21:50;;;;;;;5.53;3.00;;;21.70;99.90;;;;;;4770981;30;20055;-67
2022/06/21 06:24:30;;;;;;;4.45;2.92;;;21.80;99.90;;;;;;4771750;30;20087;-69
2022/06/21 06:26:59;;;;;;;5.38;3.08;;;21.80;99.90;;;;;;4773279;30;20060;-68
2022/06/21 06:29:38;;;;;;;3.38;2.03;;;22.20;99.90;;;;;;4772272;30;20163;-68
2022/06/21 06:32:21;;;;;;;6.35;2.38;;;22.30;99.90;;;;;;4772497;30;20052;-68
2022/06/21 06:34:50;;;;;;;2.60;1.60;;;22.20;99.90;;;;;;4769821;30;20052;-67
2022/06/21 06:37:31;;;;;;;3.53;1.73;;;22.10;99.90;;;;;;4770383;30;20058;-68
2022/06/21 06:39:58;;;;;;;2.88;1.85;;;22.10;99.90;;;;;;4785313;30;20130;-67
2022/06/21 06:42:30;;;;;;;3.30;1.50;;;21.40;99.90;;;;;;4771377;30;20130;-68
2022/06/21 06:45:14;;;;;;;4.07;1.52;;;20.60;99.90;;;;;;4771341;30;20062;-66
2022/06/21 06:47:47;;;;;;;4.38;1.48;;;19.80;99.90;;;;;;4768412;30;20110;-69
2022/06/21 06:50:20;;;;;;;6.50;1.60;;;18.80;99.90;;;;;;4759685;30;20101;-67
2022/06/21 06:53:20;;;;;;;9.68;2.20;;;18.60;99.90;;;;;;4768603;30;20063;-65
2022/06/21 06:56:27;;;;;;;5.15;2.22;;;18.30;99.90;;;;;;4778315;29;20067;-68
2022/06/21 07:03:04;;;;;;;4.00;2.10;;;18.00;99.90;;;;;;4771812;30;20166;-68
2022/06/21 07:05:40;;;;;;;5.00;2.30;;;17.70;99.90;;;;;;4752110;30;20047;-67
2022/06/21 07:08:20;;;;;;;3.28;1.90;;;17.70;99.90;;;;;;4771641;30;20047;-68
2022/06/21 07:10:49;;;;;;;5.72;2.15;;;17.70;99.90;;;;;;4772133;30;20060;-67
2022/06/21 07:13:15;;;;;;;4.57;2.53;;;17.80;99.90;;;;;;4770680;30;20059;-67
2022/06/21 07:15:44;;;;;;;5.68;2.63;;;17.80;99.90;;;;;;4772620;30;20138;-67
2022/06/21 07:18:16;;;;;;;6.15;2.60;;;18.00;99.90;;;;;;4772162;30;20051;-70
2022/06/21 07:20:46;;;;;;;6.90;3.10;;;18.10;99.90;;;;;;4771573;30;20114;-69
2022/06/21 07:23:19;;;;;;;5.85;2.80;;;18.20;99.90;;;;;;4771989;30;20451;-69
2022/06/21 07:25:50;;;;;;;6.00;3.33;;;18.10;99.90;;;;;;4770739;30;20051;-70
2022/06/21 07:28:31;;;;;;;5.15;3.38;;;17.90;99.90;;;;;;4770108;30;20393;-68
2022/06/21 07:31:00;;;;;;;8.35;3.97;;;17.90;99.90;;;;;;4772220;30;20139;-68
2022/06/21 07:33:31;;;;;;;7.07;4.40;;;17.90;99.90;;;;;;4771466;30;20397;-70
2022/06/21 07:36:03;;;;;;;3.22;2.83;;;17.80;99.90;;;;;;4772122;30;20055;-68
2022/06/21 07:38:36;;;;;;;6.72;2.90;;;17.70;99.90;;;;;;4770340;30;20063;-67
2022/06/21 07:41:38;;;;;;;5.90;3.00;;;17.60;99.90;;;;;;4771152;30;20074;-68
2022/06/21 07:44:16;;;;;;;4.95;2.95;;;17.50;99.90;;;;;;4759702;30;20055;-69
2022/06/21 07:46:52;;;;;;;6.18;3.20;;;17.30;99.90;;;;;;4770550;30;20429;-69
2022/06/21 07:49:47;;;;;;;4.13;3.00;;;17.40;99.90;;;;;;4770564;30;20047;-70
2022/06/21 07:52:39;;;;;;;5.03;2.40;;;17.70;99.90;;;;;;4770996;30;20138;-69
2022/06/21 07:55:17;;;;;;;5.07;2.45;;;17.90;99.90;;;;;;4771860;29;20056;-68
2022/06/21 07:57:50;;;;;;;3.30;2.85;;;18.20;99.90;;;;;;4771354;30;20055;-68
2022/06/21 08:00:22;;;;;;;6.78;3.47;;;18.30;99.90;;;;;;4771915;30;20565;-68
2022/06/21 08:08:50;;;;;;;4.75;2.60;;;18.50;99.90;;;;;;4770960;30;20052;-69
2022/06/21 08:11:23;;;;;;;4.68;2.25;;;18.70;99.90;;;;;;4769037;30;20157;-69
2022/06/21 08:13:49;;;;;;;3.53;2.25;;;18.80;99.90;;;;;;4767841;30;20044;-68
2022/06/21 08:16:17;;;;;;;8.48;2.65;;;18.90;99.90;;;;;;4771005;30;20118;-69
2022/06/21 08:19:13;;;;;;;4.53;2.40;;;18.90;99.90;;;;;;4767949;30;20066;-67
2022/06/21 08:21:46;;;;;;;5.75;2.78;;;18.70;99.90;;;;;;4771318;30;20100;-70
2022/06/21 08:24:31;;;;;;;7.28;2.42;;;18.60;99.90;;;;;;4768537;30;20056;-69
2022/06/21 08:27:29;;;;;;;6.72;2.90;;;18.50;99.90;;;;;;4751263;30;20056;-70
2022/06/21 08:29:55;;;;;;;6.28;2.45;;;18.70;99.90;;;;;;4761896;30;20453;-69
2022/06/21 08:32:31;;;;;;;4.95;2.13;;;18.90;99.90;;;;;;4767907;30;20044;-69
2022/06/21 08:35:15;;;;;;;4.32;2.55;;;19.10;99.90;;;;;;4768293;30;20048;-68
2022/06/21 08:37:52;;;;;;;6.18;2.60;;;19.30;99.90;;;;;;4785740;29;20061;-69
2022/06/21 08:40:45;;;;;;;3.85;1.80;;;19.60;99.90;;;;;;4769642;30;20044;-68
2022/06/21 08:43:38;;;;;;;4.10;2.17;;;19.70;99.90;;;;;;4768172;30;20060;-68
2022/06/21 08:46:19;;;;;;;3.72;2.00;;;19.70;99.90;;;;;;4768648;30;20051;-68
2022/06/21 08:48:53;;;;;;;3.88;2.22;;;19.90;99.90;;;;;;4768502;30;20083;-68
2022/06/21 08:51:48;;;;;;;4.15;1.85;;;20.10;99.90;;;;;;4769771;30;20055;-68
2022/06/21 08:54:51;;;;;;;3.83;2.17;;;20.10;99.90;;;;;;4764358;30;20083;-69
2022/06/21 08:57:22;;;;;;;5.45;2.33;;;20.20;99.90;;;;;;4782627;29;20051;-69
2022/06/21 08:59:57;;;;;;;4.10;2.28;;;20.20;99.90;;;;;;4768982;30;20070;-69
2022/06/21 09:02:26;;;;;;;3.80;2.28;;;20.30;99.90;;;;;;4769569;30;20335;-71
2022/06/21 09:05:06;;;;;;;2.60;2.05;;;20.40;99.90;;;;;;4768613;30;20381;-69
2022/06/21 09:07:59;;;;;;;5.63;2.58;;;20.50;99.90;;;;;;4769200;30;20048;-68
2022/06/21 09:10:54;;;;;;;4.18;2.15;;;20.70;99.90;;;;;;4770245;30;20058;-68
2022/06/21 09:13:47;;;;;;;3.42;2.00;;;20.80;99.90;;;;;;4777784;29;20147;-68
2022/06/21 09:16:31;;;;;;;6.88;2.33;;;20.90;99.90;;;;;;4772142;30;20489;-68
2022/06/21 09:19:24;;;;;;;8.07;2.22;;;21.20;99.90;;;;;;4787715;29;20477;-69
2022/06/21 09:21:53;;;;;;;4.82;2.00;;;21.30;99.90;;;;;;4786783;29;20059;-69
2022/06/21 09:24:38;;;;;;;3.78;1.88;;;21.30;99.90;;;;;;4787666;30;20119;-68
2022/06/21 09:27:22;;;;;;;5.18;2.17;;;21.40;99.90;;;;;;4770870;30;20500;-68
2022/06/21 09:30:04;;;;;;;3.47;2.05;;;21.40;99.20;;;;;;4788066;30;20063;-68
2022/06/21 09:32:49;;;;;;;;;;;21.40;99.90;;;;;;4787427;30;20058;-68
2022/06/21 09:35:39;;;;;;;4.60;1.67;;;21.50;94.00;;;;;;4771871;30;19921;-66
2022/06/21 09:38:22;;;;;;;3.67;2.00;;;21.60;98.80;;;;;;4771481;30;20087;-68
2022/06/21 09:40:56;;;;;;;4.55;1.90;;;21.50;97.50;;;;;;4771982;30;20055;-68
2022/06/21 09:43:46;;;;;;;3.80;1.70;;;21.70;94.20;;;;;;4771025;30;20508;-68
2022/06/21 09:46:30;;;;;;;3.47;1.48;;;21.60;93.00;;;;;;4788055;30;20140;-68
2022/06/21 09:49:09;;;;;;;2.42;1.65;;;21.60;96.30;;;;;;4769834;30;20050;-69
2022/06/21 09:51:57;;;;;;;2.85;1.98;;;21.60;95.30;;;;;;4781353;29;20126;-67
2022/06/21 09:54:35;;;;;;;2.53;1.70;;;21.70;97.00;;;;;;4786102;29;20311;-68
2022/06/21 09:57:29;;;;;;;2.88;1.80;;;21.70;94.50;;;;;;4785769;30;20390;-67
2022/06/21 10:00:19;;;;;;;3.03;2.00;;;21.70;82.70;;;;;;4787287;30;20126;-66
2022/06/21 10:03:19;;;;;;;2.33;1.88;;;21.70;93.90;;;;;;4785669;30;20497;-68
2022/06/21 10:06:07;;;;;;;2.92;1.80;;;21.60;99.90;;;;;;4787409;30;20481;-68
2022/06/21 10:09:00;;;;;;;5.40;1.92;;;21.80;97.40;;;;;;4770499;30;20172;-68
2022/06/21 10:11:39;;;;;;;3.30;2.08;;;21.90;87.80;;;;;;4787645;29;20135;-70
2022/06/21 10:14:29;;;;;;;3.58;1.70;;;21.80;91.70;;;;;;4771025;30;20517;-67
2022/06/21 10:17:04;;;;;;;3.08;2.22;;;21.70;77.00;;;;;;4785908;29;20055;-70
2022/06/21 10:19:49;;;;;;;5.65;2.35;;;21.70;85.70;;;;;;4785531;29;20055;-68
2022/06/21 10:22:31;;;;;;;4.55;1.92;;;21.70;74.50;;;;;;4769898;30;20119;-68
2022/06/21 10:25:05;;;;;;;2.88;1.80;;;21.60;83.10;;;;;;4786109;29;20184;-68
2022/06/21 10:27:42;;;;;;;3.15;1.80;;;21.50;91.30;;;;;;4785324;30;20503;-69
2022/06/21 10:30:36;;;;;;;3.63;1.75;;;21.60;81.50;;;;;;4787442;30;20119;-69
2022/06/21 10:33:20;;;;;;;3.25;1.67;;;21.80;75.00;;;;;;4771087;30;20093;-68
2022/06/21 10:36:19;;;;;;;4.85;1.92;;;21.70;72.30;;;;;;4771398;30;20070;-68
2022/06/21 10:39:03;;;;;;;3.22;1.67;;;21.60;72.10;;;;;;4786895;29;20477;-68
2022/06/21 10:45:15;;;;;;;4.95;1.92;;;21.40;76.90;;;;;;4787357;30;20451;-67
2022/06/21 10:47:52;;;;;;;5.15;1.90;;;21.40;68.50;;;;;;4781671;30;20482;-68
2022/06/21 10:50:44;;;;;;;4.70;1.77;;;21.40;68.30;;;;;;4787700;29;20366;-68
2022/06/21 10:53:25;;;;;;;2.55;1.83;;;21.50;65.70;;;;;;4771461;29;20443;-68
2022/06/21 10:59:24;;;;;;;3.58;1.85;;;21.70;67.00;;;;;;4787388;29;20043;-68
2022/06/21 11:02:11;;;;;;;3.92;1.50;;;21.70;65.50;;;;;;4789248;29;20062;-69
2022/06/21 11:05:14;;;;;;;4.07;1.63;;;21.70;66.30;;;;;;4789911;29;20054;-67
2022/06/21 11:08:09;;;;;;;2.97;1.65;;;21.90;64.70;;;;;;4789274;30;20490;-68
2022/06/21 11:10:43;;;;;;;2.85;1.83;;;22.00;68.50;;;;;;4789750;29;20055;-68
2022/06/21 11:13:14;;;;;;;3.72;1.90;;;22.00;64.70;;;;;;4789276;29;20578;-68
2022/06/21 11:15:49;;;;;;;5.43;1.90;;;22.20;63.60;;;;;;4773190;30;20104;-68
2022/06/21 11:18:38;;;;;;;3.45;1.73;;;22.20;64.70;;;;;;4789657;29;20055;-68
2022/06/21 11:21:19;;;;;;;5.22;1.95;;;22.30;60.60;;;;;;4789338;29;20115;-68
2022/06/21 11:24:07;;;;;;;2.33;1.70;;;22.40;61.60;;;;;;4787985;30;20069;-67
2022/06/21 11:26:49;;;;;;;1.90;1.38;;;22.50;60.10;;;;;;4772409;30;20489;-69
2022/06/21 11:29:15;;;;;;;3.75;1.45;;;22.60;60.40;;;;;;4789046;30;20055;-68
2022/06/21 11:31:55;;;;;;;4.57;1.80;;;22.50;60.40;;;;;;4789454;30;20378;-69
2022/06/21 11:35:01;;;;;;;3.53;1.70;;;22.60;60.60;;;;;;4790097;29;20059;-68
2022/06/21 11:37:42;;;;;;;2.53;1.80;;;22.70;61.20;;;;;;4778656;29;20050;-69
2022/06/21 11:40:40;;;;;;;3.13;1.75;;;22.70;62.10;;;;;;4790181;30;20081;-68
2022/06/21 11:43:29;;;;;;;4.20;1.80;;;22.80;62.00;;;;;;4772210;30;20096;-67
2022/06/21 11:46:14;;;;;;;2.97;1.40;;;22.70;61.40;;;;;;4789882;30;20055;-70
2022/06/21 11:49:20;;;;;;;3.45;1.20;;;22.80;62.70;;;;;;4773188;30;20130;-68
2022/06/21 11:52:11;;;;;;;5.45;1.80;;;23.00;62.10;;;;;;4789696;29;20085;-68
2022/06/21 11:55:17;;;;;;;13.57;2.60;;;23.20;63.10;;;;;;4783964;29;20051;-67
2022/06/21 11:57:53;;;;;;;3.17;2.05;;;23.40;61.20;;;;;;4773367;30;20066;-69
2022/06/21 12:00:54;;;;;;;4.47;1.77;;;23.30;60.40;;;;;;4772900;29;20085;-68
2022/06/21 12:04:00;;;;;;;4.10;1.67;;;23.20;59.70;;;;;;4789943;29;20108;-68
2022/06/21 12:06:40;;;;;;;3.38;1.50;;;23.20;60.20;;;;;;4773243;29;20533;-68
2022/06/21 12:09:35;;;;;;;4.95;1.60;;;23.20;60.40;;;;;;4773322;29;20126;-70
2022/06/21 12:12:23;;;;;;;3.83;1.73;;;23.20;59.70;;;;;;4788590;29;20067;-69
2022/06/21 12:15:26;;;;;;;3.45;1.83;;;23.20;59.60;;;;;;4788444;30;20054;-68
2022/06/21 12:18:05;;;;;;;4.38;1.85;;;23.20;59.70;;;;;;4786630;29;20059;-69
2022/06/21 12:20:42;;;;;;;2.75;1.40;;;23.10;60.80;;;;;;4788336;30;20533;-69
2022/06/21 12:23:27;;;;;;;9.55;1.92;;;23.20;61.50;;;;;;4787439;30;20054;-67
2022/06/21 12:25:54;;;;;;;5.68;1.60;;;23.00;59.30;;;;;;4787404;30;20099;-69
2022/06/21 12:28:25;;;;;;;3.10;1.48;;;22.90;59.90;;;;;;4788730;30;20054;-68
2022/06/21 12:30:52;;;;;;;3.42;1.90;;;22.90;60.40;;;;;;4788580;29;20044;-68
2022/06/21 12:33:22;;;;;;;3.20;1.73;;;22.80;60.30;;;;;;4771634;30;20108;-69
2022/06/21 12:35:56;;;;;;;1.83;1.50;;;22.70;60.30;;;;;;4789162;30;20052;-68
2022/06/21 12:38:35;;;;;;;2.97;1.77;;;22.60;60.00;;;;;;4787232;29;20108;-69
2022/06/21 12:41:34;;;;;;;3.92;1.52;;;22.60;61.00;;;;;;4772787;30;20062;-70
2022/06/21 12:44:37;;;;;;;3.22;1.60;;;22.60;60.00;;;;;;4787351;30;20559;-68
2022/06/21 12:47:21;;;;;;;3.17;1.75;;;22.90;61.40;;;;;;4787793;29;20104;-70
2022/06/21 12:50:21;;;;;;;2.20;1.77;;;23.20;60.60;;;;;;4788511;29;20051;-68
2022/06/21 12:52:54;;;;;;;4.68;1.73;;;23.40;58.40;;;;;;4788599;30;20043;-69
2022/06/21 12:55:38;;;;;;;3.20;1.35;;;23.40;59.20;;;;;;4787330;30;20095;-69
2022/06/21 12:58:23;;;;;;;3.47;1.30;;;23.40;58.40;;;;;;4788412;30;20055;-69
2022/06/21 13:00:53;;;;;;;3.22;1.50;;;23.40;59.30;;;;;;4788679;30;20066;-69
2022/06/21 13:03:43;;;;;;;3.70;1.40;;;23.40;60.10;;;;;;4787698;29;20062;-68
2022/06/21 13:06:45;;;;;;;4.95;1.52;;;23.40;58.90;;;;;;4786257;30;20051;-69
2022/06/21 13:09:21;;;;;;;3.70;1.42;;;23.60;58.00;;;;;;4771950;30;20058;-70
2022/06/21 13:12:38;;;;;;;3.15;1.33;;;23.70;58.10;;;;;;4787461;30;20066;-69
2022/06/21 13:15:19;;;;;;;2.35;1.00;;;23.80;58.80;;;;;;4783187;30;20059;-69
2022/06/21 13:18:14;;;;;;;3.88;1.30;;;23.80;58.60;;;;;;4767336;30;20086;-70
2022/06/21 13:20:55;;;;;;;2.42;1.30;;;23.80;59.10;;;;;;4768732;30;20494;-70
2022/06/21 13:23:59;;;;;;;2.08;1.20;;;23.80;58.10;;;;;;4767409;30;20146;-72
2022/06/21 13:26:50;;;;;;;2.70;1.23;;;23.70;58.20;;;;;;4716853;30;20402;-70
2022/06/21 13:29:31;;;;;;;2.53;1.52;;;23.60;57.70;;;;;;4729439;30;20471;-69
2022/06/21 13:32:02;;;;;;;3.03;1.40;;;23.50;57.50;;;;;;4771057;30;20055;-70
2022/06/21 13:34:51;;;;;;;2.75;1.17;;;23.20;58.00;;;;;;4788155;30;20104;-70
2022/06/21 13:37:33;;;;;;;3.63;1.50;;;23.00;59.50;;;;;;4762091;30;20374;-70
2022/06/21 13:40:17;;;;;;;;;;;22.90;60.10;;;;;;4770775;30;20164;-69
2022/06/21 13:42:51;;;;;;;2.13;1.10;;;22.80;58.00;;;;;;4769697;30;20371;-69
2022/06/21 13:45:40;;;;;;;2.63;1.30;;;22.80;58.90;;;;;;4768748;30;20044;-69
2022/06/21 13:48:44;;;;;;;2.25;1.13;;;23.00;58.80;;;;;;4766338;30;20036;-69
2022/06/21 13:51:12;;;;;;;2.58;1.23;;;23.00;59.30;;;;;;4737570;30;20055;-69
2022/06/21 13:53:45;;;;;;;3.58;1.33;;;23.10;58.70;;;;;;4768008;30;20058;-67
2022/06/21 13:56:30;;;;;;;8.00;1.63;;;23.30;59.30;;;;;;4767538;30;20048;-66
2022/06/21 13:59:09;;;;;;;3.17;1.33;;;23.40;59.10;;;;;;4768933;30;20109;-69
2022/06/21 14:01:38;;;;;;;3.67;1.42;;;23.40;57.90;;;;;;4767827;30;20154;-68
2022/06/21 14:04:28;;;;;;;2.97;1.20;;;23.60;58.10;;;;;;4769707;30;20481;-69
2022/06/21 14:07:26;;;;;;;2.17;1.20;;;23.60;56.70;;;;;;4768296;30;20156;-70
2022/06/21 14:10:18;;;;;;;2.20;1.23;;;23.70;56.20;;;;;;4769345;30;20051;-69
2022/06/21 14:12:56;;;;;;;3.38;0.90;;;23.70;56.30;;;;;;4770338;30;20066;-69
2022/06/21 14:15:34;;;;;;;1.80;1.00;;;23.70;55.80;;;;;;4770620;30;20130;-67
2022/06/21 14:18:11;;;;;;;3.25;1.13;;;23.70;56.50;;;;;;4784996;30;20546;-68
2022/06/21 14:21:00;;;;;;;1.95;1.25;;;23.70;56.20;;;;;;4785088;30;20059;-68
2022/06/21 14:23:37;;;;;;;1.00;0.85;;;23.70;55.70;;;;;;4766810;30;20055;-68
2022/06/21 14:26:35;;;;;;;2.17;0.95;;;23.70;56.60;;;;;;4786406;29;20061;-68
2022/06/21 14:29:15;;;;;;;2.88;1.02;;;23.70;55.60;;;;;;4774784;29;20059;-68